createdAt,value
2019-01-14T00:01:37.125Z,99.900002
2019-01-14T00:06:39.455Z,99.900002
2019-01-14T00:11:41.756Z,99.900002
2019-01-14T00:16:44.292Z,99.900002
2019-01-14T00:21:46.535Z,99.900002
2019-01-14T00:26:48.712Z,99.900002
2019-01-14T00:31:50.885Z,99.900002
2019-01-14T00:36:53.345Z,99.900002
2019-01-14T00:41:55.499Z,99.900002
2019-01-14T00:46:57.822Z,99.900002
2019-01-14T00:52:00.218Z,99.400002
2019-01-14T00:57:02.365Z,99.900002
2019-01-14T01:02:04.712Z,99.599998
2019-01-14T01:07:06.984Z,99.900002
2019-01-14T01:12:10.327Z,99.900002
2019-01-14T01:17:11.519Z,99.900002
2019-01-14T01:22:15.251Z,99.900002
2019-01-14T01:27:16.168Z,99.5
2019-01-14T01:32:18.542Z,99.900002
2019-01-14T01:37:21.206Z,99.900002
2019-01-14T01:42:23.094Z,99.900002
2019-01-14T01:47:25.293Z,99.900002
2019-01-14T01:52:27.708Z,99.900002
2019-01-14T01:57:31.284Z,99.900002
2019-01-14T02:02:32.191Z,99.900002
2019-01-14T02:07:34.495Z,99.900002
2019-01-14T02:12:36.879Z,99.900002
2019-01-14T02:17:39.036Z,99.900002
2019-01-14T02:22:41.486Z,99.900002
2019-01-14T02:27:43.630Z,99.900002
2019-01-14T02:32:46.088Z,99.900002
2019-01-14T02:37:48.359Z,99.900002
2019-01-14T02:42:50.691Z,99.900002
2019-01-14T02:47:52.899Z,99.900002
2019-01-14T02:52:56.328Z,99.900002
2019-01-14T02:57:57.481Z,99.900002
2019-01-14T03:02:59.666Z,99.900002
2019-01-14T03:08:02.084Z,99.900002
2019-01-14T03:13:04.353Z,99.900002
2019-01-14T03:18:06.730Z,99.900002
2019-01-14T03:23:09.012Z,99.900002
2019-01-14T03:28:11.173Z,99.900002
2019-01-14T03:33:13.666Z,99.900002
2019-01-14T03:38:15.824Z,99.900002
2019-01-14T03:43:18.162Z,99.900002
2019-01-14T03:48:20.418Z,99.900002
2019-01-14T03:53:22.672Z,99.900002
2019-01-14T03:58:24.944Z,99.900002
2019-01-14T04:03:27.214Z,99.900002
2019-01-14T04:08:29.581Z,99.900002
2019-01-14T04:13:31.834Z,99.900002
2019-01-14T04:18:34.125Z,99.900002
2019-01-14T04:23:36.561Z,99.900002
2019-01-14T04:28:38.744Z,99.900002
2019-01-14T04:33:42.386Z,99.900002
2019-01-14T04:38:43.347Z,99.900002
2019-01-14T04:43:45.819Z,99.900002
2019-01-14T04:48:47.919Z,99.900002
2019-01-14T04:53:50.150Z,99.900002
2019-01-14T05:03:54.784Z,99.900002
2019-01-14T05:08:57.033Z,99.900002
2019-01-14T05:13:59.360Z,99.900002
2019-01-14T05:19:01.728Z,99.900002
2019-01-14T05:24:03.925Z,99.900002
2019-01-14T05:29:06.231Z,99.900002
2019-01-14T05:34:08.674Z,99.900002
2019-01-14T05:39:10.828Z,99.900002
2019-01-14T05:44:13.192Z,99.900002
2019-01-14T05:49:16.605Z,99.900002
2019-01-14T05:54:17.741Z,99.900002
2019-01-14T05:59:20.052Z,99.900002
2019-01-14T06:04:22.433Z,99.900002
2019-01-14T06:09:24.718Z,99.900002
2019-01-14T06:14:26.953Z,99.900002
2019-01-14T06:19:29.205Z,99.900002
2019-01-14T06:24:31.431Z,99.900002
2019-01-14T06:29:33.719Z,99.900002
2019-01-14T06:34:36.072Z,99.900002
2019-01-14T06:39:38.447Z,99.900002
2019-01-14T06:44:40.751Z,99.900002
2019-01-14T06:49:43.007Z,99.900002
2019-01-14T06:54:45.260Z,99.900002
2019-01-14T06:59:47.628Z,99.900002
2019-01-14T07:04:49.824Z,99.900002
2019-01-14T07:09:52.136Z,99.900002
2019-01-14T07:14:54.492Z,99.900002
2019-01-14T07:19:56.692Z,99.900002
2019-01-14T07:24:59.026Z,99.900002
2019-01-14T07:30:01.293Z,99.900002
2019-01-14T07:35:03.679Z,99.900002
2019-01-14T07:40:06.025Z,99.900002
2019-01-14T07:45:08.295Z,99.900002
2019-01-14T07:50:10.633Z,99.900002
2019-01-14T07:55:12.839Z,99.900002
2019-01-14T08:00:15.044Z,99.900002
2019-01-14T08:05:17.457Z,99.900002
2019-01-14T08:10:19.751Z,99.900002
2019-01-14T08:15:22.000Z,99.900002
2019-01-14T08:20:24.252Z,99.900002
2019-01-14T08:25:26.505Z,99.900002
2019-01-14T08:30:28.919Z,99.900002
2019-01-14T08:35:31.204Z,99.900002
2019-01-14T08:40:33.459Z,99.900002
2019-01-14T08:45:35.798Z,99.900002
2019-01-14T08:50:38.103Z,99.900002
2019-01-14T08:55:40.381Z,99.900002
2019-01-14T09:00:42.897Z,99.900002
2019-01-14T09:05:44.853Z,99.900002
2019-01-14T09:10:47.195Z,99.900002
2019-01-14T09:15:49.440Z,99.900002
2019-01-14T09:20:51.937Z,99.900002
2019-01-14T09:25:54.218Z,99.900002
2019-01-14T09:30:56.341Z,99.900002
2019-01-14T09:35:58.739Z,99.900002
2019-01-14T09:41:00.969Z,99.900002
2019-01-14T09:46:03.208Z,99.900002
2019-01-14T09:51:05.471Z,99.900002
2019-01-14T09:56:07.760Z,99.900002
2019-01-14T10:01:10.136Z,98.300003
2019-01-14T10:06:12.531Z,98
2019-01-14T10:11:14.766Z,98.699997
2019-01-14T10:16:16.995Z,99.900002
2019-01-14T10:21:19.319Z,99.900002
2019-01-14T10:26:21.718Z,99.900002
2019-01-14T10:31:23.902Z,99.900002
2019-01-14T10:36:26.175Z,99.900002
2019-01-14T10:41:28.440Z,98
2019-01-14T10:46:30.903Z,99.900002
2019-01-14T10:51:33.069Z,99.5
2019-01-14T10:56:35.364Z,99.400002
2019-01-14T11:01:37.633Z,99.900002
2019-01-14T11:06:39.920Z,93.800003
2019-01-14T11:11:42.293Z,92.5
2019-01-14T11:16:45.975Z,92.5
2019-01-14T11:21:46.887Z,92.300003
2019-01-14T11:26:49.186Z,91.900002
2019-01-14T11:31:51.399Z,86.800003
2019-01-14T11:36:53.747Z,87.099998
2019-01-14T11:41:56.017Z,86.699997
2019-01-14T11:46:58.316Z,82.599998
2019-01-14T11:52:00.633Z,74
2019-01-14T11:57:02.979Z,67.699997
2019-01-14T12:02:05.185Z,60.700001
2019-01-14T12:07:07.476Z,59.5
2019-01-14T12:12:10.893Z,56.099998
2019-01-14T12:17:12.027Z,60.299999
2019-01-14T12:22:14.384Z,65
2019-01-14T12:27:16.803Z,66
2019-01-14T12:32:18.875Z,67.599998
2019-01-14T12:37:21.235Z,70.300003
2019-01-14T12:42:23.597Z,69.599998
2019-01-14T12:47:25.777Z,69.199997
2019-01-14T12:52:28.123Z,69.800003
2019-01-14T12:57:30.407Z,72.5
2019-01-14T13:02:32.735Z,73.199997
2019-01-14T13:07:35.038Z,81.800003
2019-01-14T13:12:37.282Z,88.400002
2019-01-14T13:17:39.718Z,93.400002
2019-01-14T13:22:41.953Z,95.599998
2019-01-14T13:27:44.127Z,92.199997
2019-01-14T13:32:46.398Z,89.400002
2019-01-14T13:37:48.800Z,90
2019-01-14T13:42:51.084Z,85.900002
2019-01-14T13:47:53.331Z,83.099998
2019-01-14T13:52:56.840Z,75.300003
2019-01-14T13:57:59.905Z,80.099998
2019-01-14T14:03:00.156Z,82.900002
2019-01-14T14:08:02.558Z,86.400002
2019-01-14T14:13:04.876Z,84.900002
2019-01-14T14:18:07.119Z,79.400002
2019-01-14T14:23:09.440Z,78.199997
2019-01-14T14:28:11.782Z,78.199997
2019-01-14T14:33:14.046Z,74.199997
2019-01-14T14:38:16.216Z,71.800003
2019-01-14T14:43:18.573Z,73.599998
2019-01-14T14:48:20.942Z,70.5
2019-01-14T14:53:23.419Z,70.199997
2019-01-14T14:58:25.441Z,68.800003
2019-01-14T15:03:27.846Z,69.5
2019-01-14T15:08:30.066Z,71
2019-01-14T15:13:32.305Z,70.900002
2019-01-14T15:18:34.535Z,72.400002
2019-01-14T15:23:38.318Z,74.199997
2019-01-14T15:28:40.265Z,75.5
2019-01-14T15:33:41.459Z,76.900002
2019-01-14T15:38:43.816Z,78.599998
2019-01-14T15:43:46.089Z,80
2019-01-14T15:48:48.328Z,81.099998
2019-01-14T15:53:50.774Z,82.5
2019-01-14T15:58:53.019Z,82.699997
2019-01-14T16:03:55.262Z,84.199997
2019-01-14T16:08:57.675Z,85.300003
2019-01-14T16:13:59.869Z,88.099998
2019-01-14T16:19:02.115Z,88.900002
2019-01-14T16:24:04.464Z,89.099998
2019-01-14T16:29:06.729Z,89.300003
2019-01-14T16:34:08.961Z,90.5
2019-01-14T16:39:11.392Z,89.800003
2019-01-14T16:44:13.570Z,90.199997
2019-01-14T16:49:16.013Z,89.900002
2019-01-14T16:54:18.295Z,90.099998
2019-01-14T16:59:22.178Z,90.400002
2019-01-14T17:04:22.797Z,90.5
2019-01-14T17:09:25.191Z,90.800003
2019-01-14T17:19:29.677Z,90.900002
2019-01-14T17:24:32.362Z,91.300003
2019-01-14T17:29:34.323Z,92
2019-01-14T17:34:36.519Z,93.300003
2019-01-14T17:39:38.835Z,94.5
2019-01-14T17:44:41.281Z,93.900002
2019-01-14T17:49:43.498Z,93.699997
2019-01-14T17:54:45.724Z,93.099998
2019-01-14T17:59:48.154Z,93.300003
2019-01-14T18:04:50.363Z,93.699997
2019-01-14T18:09:52.653Z,94.400002
2019-01-14T18:14:54.935Z,94.900002
2019-01-14T18:19:57.145Z,95.099998
2019-01-14T18:24:59.639Z,94.900002
2019-01-14T18:30:01.781Z,94.5
2019-01-14T18:35:05.245Z,93
2019-01-14T18:40:06.429Z,93.099998
2019-01-14T18:45:08.617Z,94.400002
2019-01-14T18:50:10.902Z,95.400002
2019-01-14T18:55:13.156Z,96.400002
2019-01-14T19:00:15.536Z,98.599998
2019-01-14T19:05:17.821Z,99.900002
2019-01-14T19:10:24.221Z,99.900002
2019-01-14T19:15:22.505Z,99.900002
2019-01-14T19:20:24.765Z,99.900002
2019-01-14T19:25:26.984Z,99.900002
2019-01-14T19:30:29.357Z,99.900002
2019-01-14T19:35:31.550Z,99.900002
2019-01-14T19:40:33.860Z,99.900002
2019-01-14T19:45:36.332Z,99.900002
2019-01-14T19:50:38.436Z,99.900002
2019-01-14T19:55:40.737Z,99.900002
2019-01-14T20:00:43.138Z,99.900002
2019-01-14T20:05:45.397Z,99.900002
2019-01-14T20:10:49.899Z,99.900002
2019-01-14T20:15:51.106Z,99.900002
2019-01-14T20:20:52.211Z,99.900002
2019-01-14T20:25:54.493Z,99.900002
2019-01-14T20:30:57.141Z,99.900002
2019-01-14T20:41:01.436Z,99.900002
2019-01-14T20:46:03.698Z,99.900002
2019-01-14T20:51:06.078Z,99.900002
2019-01-14T20:56:08.312Z,99.900002
2019-01-14T21:01:10.615Z,99.900002
2019-01-14T21:06:12.830Z,99.900002
2019-01-14T21:11:15.208Z,99.900002
2019-01-14T21:16:17.451Z,99.900002
2019-01-14T21:21:19.770Z,99.900002
2019-01-14T21:26:22.095Z,99.900002
2019-01-14T21:31:24.354Z,99.900002
2019-01-14T21:36:26.610Z,99.900002
2019-01-14T21:41:31.430Z,99.900002
2019-01-14T21:46:31.711Z,99.900002
2019-01-14T21:51:33.635Z,99.900002
2019-01-14T21:56:35.758Z,99.900002
2019-01-14T22:01:38.206Z,99.900002
2019-01-14T22:06:40.358Z,99.900002
2019-01-14T22:11:42.667Z,99.900002
2019-01-14T22:16:45.112Z,99.900002
2019-01-14T22:21:47.380Z,99.900002
2019-01-14T22:26:49.529Z,99.900002
2019-01-14T22:31:51.859Z,99.900002
2019-01-14T22:36:54.261Z,99.900002
2019-01-14T22:41:56.516Z,99.900002
2019-01-14T22:46:58.777Z,99.900002
2019-01-14T22:52:01.037Z,99.900002
2019-01-14T22:57:03.394Z,99.900002
2019-01-14T23:02:05.566Z,99.900002
2019-01-14T23:07:07.887Z,99.900002
2019-01-14T23:12:10.250Z,99.900002
2019-01-14T23:17:12.482Z,99.900002
2019-01-14T23:22:16.064Z,99.900002
2019-01-14T23:27:17.255Z,99.900002
2019-01-14T23:32:19.387Z,99.900002
2019-01-14T23:37:21.627Z,99.900002
2019-01-14T23:42:23.961Z,99.900002
2019-01-14T23:47:26.293Z,99.900002
2019-01-14T23:52:28.576Z,99.900002
2019-01-14T23:57:30.886Z,99.900002
